sensor_id;sensor_type;location;lat;lon;timestamp;P1;durP1;ratioP1;P2;durP2;ratioP2
9986;SDS011;5033;46.310;11.214;2023-04-03T00:01:01;1.15;;;1.15;;
9986;SDS011;5033;46.310;11.214;2023-04-03T00:03:28;1.20;;;1.20;;
9986;SDS011;5033;46.310;11.214;2023-04-03T00:05:55;1.00;;;1.00;;
9986;SDS011;5033;46.310;11.214;2023-04-03T00:08:23;1.08;;;1.08;;
9986;SDS011;5033;46.310;11.214;2023-04-03T00:10:50;1.10;;;1.10;;
9986;SDS011;5033;46.310;11.214;2023-04-03T00:13:17;1.35;;;1.35;;
9986;SDS011;5033;46.310;11.214;2023-04-03T00:15:44;1.10;;;1.10;;
9986;SDS011;5033;46.310;11.214;2023-04-03T00:18:13;1.30;;;1.30;;
9986;SDS011;5033;46.310;11.214;2023-04-03T00:20:40;1.20;;;1.20;;
9986;SDS011;5033;46.310;11.214;2023-04-03T00:23:07;1.05;;;1.05;;
9986;SDS011;5033;46.310;11.214;2023-04-03T00:25:34;1.50;;;1.40;;
9986;SDS011;5033;46.310;11.214;2023-04-03T00:28:02;1.13;;;1.13;;
9986;SDS011;5033;46.310;11.214;2023-04-03T00:30:29;1.00;;;1.00;;
9986;SDS011;5033;46.310;11.214;2023-04-03T00:32:56;1.20;;;1.20;;
9986;SDS011;5033;46.310;11.214;2023-04-03T00:35:25;1.30;;;1.30;;
9986;SDS011;5033;46.310;11.214;2023-04-03T00:37:52;0.90;;;0.90;;
9986;SDS011;5033;46.310;11.214;2023-04-03T00:40:21;1.35;;;1.35;;
9986;SDS011;5033;46.310;11.214;2023-04-03T00:42:50;1.20;;;1.20;;
9986;SDS011;5033;46.310;11.214;2023-04-03T00:45:26;1.10;;;1.10;;
9986;SDS011;5033;46.310;11.214;2023-04-03T00:47:56;1.02;;;1.02;;
9986;SDS011;5033;46.310;11.214;2023-04-03T00:50:27;1.30;;;1.30;;
9986;SDS011;5033;46.310;11.214;2023-04-03T00:52:55;1.10;;;1.10;;
9986;SDS011;5033;46.310;11.214;2023-04-03T00:55:23;1.38;;;1.30;;
9986;SDS011;5033;46.310;11.214;2023-04-03T00:57:51;1.10;;;1.10;;
9986;SDS011;5033;46.310;11.214;2023-04-03T01:00:20;1.00;;;1.00;;
9986;SDS011;5033;46.310;11.214;2023-04-03T01:02:48;1.35;;;1.35;;
9986;SDS011;5033;46.310;11.214;2023-04-03T01:05:16;1.33;;;1.33;;
9986;SDS011;5033;46.310;11.214;2023-04-03T01:07:45;1.20;;;1.20;;
9986;SDS011;5033;46.310;11.214;2023-04-03T01:10:13;1.20;;;1.20;;
9986;SDS011;5033;46.310;11.214;2023-04-03T01:12:45;1.25;;;1.25;;
9986;SDS011;5033;46.310;11.214;2023-04-03T01:15:14;1.17;;;1.17;;
9986;SDS011;5033;46.310;11.214;2023-04-03T01:17:43;1.20;;;1.20;;
9986;SDS011;5033;46.310;11.214;2023-04-03T01:20:23;1.50;;;1.50;;
9986;SDS011;5033;46.310;11.214;2023-04-03T01:23:14;1.25;;;1.25;;
9986;SDS011;5033;46.310;11.214;2023-04-03T01:25:49;1.38;;;1.38;;
9986;SDS011;5033;46.310;11.214;2023-04-03T01:28:19;1.30;;;1.30;;
9986;SDS011;5033;46.310;11.214;2023-04-03T01:30:48;1.33;;;1.33;;
9986;SDS011;5033;46.310;11.214;2023-04-03T01:33:21;1.50;;;1.50;;
9986;SDS011;5033;46.310;11.214;2023-04-03T01:35:48;1.20;;;1.20;;
9986;SDS011;5033;46.310;11.214;2023-04-03T01:38:15;1.20;;;1.20;;
9986;SDS011;5033;46.310;11.214;2023-04-03T01:40:42;1.40;;;1.40;;
9986;SDS011;5033;46.310;11.214;2023-04-03T01:43:09;1.38;;;1.38;;
9986;SDS011;5033;46.310;11.214;2023-04-03T01:45:36;1.17;;;1.17;;
9986;SDS011;5033;46.310;11.214;2023-04-03T01:48:03;1.20;;;1.20;;
9986;SDS011;5033;46.310;11.214;2023-04-03T01:50:32;1.30;;;1.30;;
9986;SDS011;5033;46.310;11.214;2023-04-03T01:52:59;1.40;;;1.40;;
9986;SDS011;5033;46.310;11.214;2023-04-03T01:55:26;1.20;;;1.20;;
9986;SDS011;5033;46.310;11.214;2023-04-03T01:57:53;1.40;;;1.40;;
9986;SDS011;5033;46.310;11.214;2023-04-03T02:00:20;1.30;;;1.30;;
9986;SDS011;5033;46.310;11.214;2023-04-03T02:02:47;1.50;;;1.50;;
9986;SDS011;5033;46.310;11.214;2023-04-03T02:05:14;1.60;;;1.50;;
9986;SDS011;5033;46.310;11.214;2023-04-03T02:07:43;1.20;;;1.20;;
9986;SDS011;5033;46.310;11.214;2023-04-03T02:10:10;1.30;;;1.30;;
9986;SDS011;5033;46.310;11.214;2023-04-03T02:12:39;1.20;;;1.20;;
9986;SDS011;5033;46.310;11.214;2023-04-03T02:15:06;1.23;;;1.23;;
9986;SDS011;5033;46.310;11.214;2023-04-03T02:17:34;1.50;;;1.50;;
9986;SDS011;5033;46.310;11.214;2023-04-03T02:20:01;1.60;;;1.60;;
9986;SDS011;5033;46.310;11.214;2023-04-03T02:22:29;1.60;;;1.60;;
9986;SDS011;5033;46.310;11.214;2023-04-03T02:24:57;1.70;;;1.60;;
9986;SDS011;5033;46.310;11.214;2023-04-03T02:27:24;1.45;;;1.45;;
9986;SDS011;5033;46.310;11.214;2023-04-03T02:29:51;1.50;;;1.50;;
9986;SDS011;5033;46.310;11.214;2023-04-03T02:32:18;1.50;;;1.50;;
9986;SDS011;5033;46.310;11.214;2023-04-03T02:34:45;1.20;;;1.20;;
9986;SDS011;5033;46.310;11.214;2023-04-03T02:37:12;1.50;;;1.50;;
9986;SDS011;5033;46.310;11.214;2023-04-03T02:39:39;1.50;;;1.40;;
9986;SDS011;5033;46.310;11.214;2023-04-03T02:42:08;1.48;;;1.48;;
9986;SDS011;5033;46.310;11.214;2023-04-03T02:44:35;1.52;;;1.52;;
9986;SDS011;5033;46.310;11.214;2023-04-03T02:47:02;1.25;;;1.25;;
9986;SDS011;5033;46.310;11.214;2023-04-03T02:49:39;1.42;;;1.42;;
9986;SDS011;5033;46.310;11.214;2023-04-03T02:52:06;1.45;;;1.45;;
9986;SDS011;5033;46.310;11.214;2023-04-03T02:54:33;1.20;;;1.20;;
9986;SDS011;5033;46.310;11.214;2023-04-03T02:57:00;1.30;;;1.30;;
9986;SDS011;5033;46.310;11.214;2023-04-03T02:59:29;0.98;;;0.98;;
9986;SDS011;5033;46.310;11.214;2023-04-03T03:01:56;1.10;;;1.10;;
9986;SDS011;5033;46.310;11.214;2023-04-03T03:04:23;1.30;;;1.30;;
9986;SDS011;5033;46.310;11.214;2023-04-03T03:06:50;1.23;;;1.23;;
9986;SDS011;5033;46.310;11.214;2023-04-03T03:09:17;1.00;;;1.00;;
9986;SDS011;5033;46.310;11.214;2023-04-03T03:11:44;1.55;;;1.45;;
9986;SDS011;5033;46.310;11.214;2023-04-03T03:14:11;1.30;;;1.20;;
9986;SDS011;5033;46.310;11.214;2023-04-03T03:16:39;1.15;;;1.15;;
9986;SDS011;5033;46.310;11.214;2023-04-03T03:19:06;1.08;;;1.08;;
9986;SDS011;5033;46.310;11.214;2023-04-03T03:21:33;1.17;;;1.17;;
9986;SDS011;5033;46.310;11.214;2023-04-03T03:24:00;1.10;;;1.10;;
9986;SDS011;5033;46.310;11.214;2023-04-03T03:26:27;1.10;;;1.10;;
9986;SDS011;5033;46.310;11.214;2023-04-03T03:28:55;1.20;;;1.20;;
9986;SDS011;5033;46.310;11.214;2023-04-03T03:31:22;1.35;;;1.35;;
9986;SDS011;5033;46.310;11.214;2023-04-03T03:33:50;1.10;;;1.10;;
9986;SDS011;5033;46.310;11.214;2023-04-03T03:36:17;1.30;;;1.30;;
9986;SDS011;5033;46.310;11.214;2023-04-03T03:38:44;1.30;;;1.30;;
9986;SDS011;5033;46.310;11.214;2023-04-03T03:41:11;1.38;;;1.38;;
9986;SDS011;5033;46.310;11.214;2023-04-03T03:43:38;1.38;;;1.38;;
9986;SDS011;5033;46.310;11.214;2023-04-03T03:46:06;1.48;;;1.48;;
9986;SDS011;5033;46.310;11.214;2023-04-03T03:48:33;1.58;;;1.58;;
9986;SDS011;5033;46.310;11.214;2023-04-03T03:51:01;1.60;;;1.60;;
9986;SDS011;5033;46.310;11.214;2023-04-03T03:53:29;1.70;;;1.70;;
9986;SDS011;5033;46.310;11.214;2023-04-03T03:55:56;1.48;;;1.48;;
9986;SDS011;5033;46.310;11.214;2023-04-03T03:58:23;1.70;;;1.60;;
9986;SDS011;5033;46.310;11.214;2023-04-03T04:00:50;1.50;;;1.50;;
9986;SDS011;5033;46.310;11.214;2023-04-03T04:03:17;1.30;;;1.30;;
9986;SDS011;5033;46.310;11.214;2023-04-03T04:05:44;1.42;;;1.42;;
9986;SDS011;5033;46.310;11.214;2023-04-03T04:08:12;1.40;;;1.40;;
9986;SDS011;5033;46.310;11.214;2023-04-03T04:10:39;1.27;;;1.27;;
9986;SDS011;5033;46.310;11.214;2023-04-03T04:13:06;1.23;;;1.23;;
9986;SDS011;5033;46.310;11.214;2023-04-03T04:15:33;1.45;;;1.45;;
9986;SDS011;5033;46.310;11.214;2023-04-03T04:18:00;1.17;;;1.17;;
9986;SDS011;5033;46.310;11.214;2023-04-03T04:20:27;1.35;;;1.35;;
9986;SDS011;5033;46.310;11.214;2023-04-03T04:22:54;1.33;;;1.33;;
9986;SDS011;5033;46.310;11.214;2023-04-03T04:25:23;1.33;;;1.33;;
9986;SDS011;5033;46.310;11.214;2023-04-03T04:27:50;1.27;;;1.27;;
9986;SDS011;5033;46.310;11.214;2023-04-03T04:30:17;1.40;;;1.40;;
9986;SDS011;5033;46.310;11.214;2023-04-03T04:32:46;1.45;;;1.45;;
9986;SDS011;5033;46.310;11.214;2023-04-03T04:35:13;1.67;;;1.58;;
9986;SDS011;5033;46.310;11.214;2023-04-03T04:37:40;1.50;;;1.50;;
9986;SDS011;5033;46.310;11.214;2023-04-03T04:40:07;2.15;;;1.50;;
9986;SDS011;5033;46.310;11.214;2023-04-03T04:42:36;1.50;;;1.50;;
9986;SDS011;5033;46.310;11.214;2023-04-03T04:45:04;1.30;;;1.30;;
9986;SDS011;5033;46.310;11.214;2023-04-03T04:47:31;1.38;;;1.38;;
9986;SDS011;5033;46.310;11.214;2023-04-03T04:49:58;1.58;;;1.58;;
9986;SDS011;5033;46.310;11.214;2023-04-03T04:52:25;1.70;;;1.60;;
9986;SDS011;5033;46.310;11.214;2023-04-03T04:54:52;1.50;;;1.50;;
9986;SDS011;5033;46.310;11.214;2023-04-03T04:57:19;1.60;;;1.60;;
9986;SDS011;5033;46.310;11.214;2023-04-03T04:59:47;1.40;;;1.40;;
9986;SDS011;5033;46.310;11.214;2023-04-03T05:02:15;1.77;;;1.67;;
9986;SDS011;5033;46.310;11.214;2023-04-03T05:04:42;1.70;;;1.70;;
9986;SDS011;5033;46.310;11.214;2023-04-03T05:07:09;1.48;;;1.48;;
9986;SDS011;5033;46.310;11.214;2023-04-03T05:09:36;1.48;;;1.48;;
9986;SDS011;5033;46.310;11.214;2023-04-03T05:12:03;1.45;;;1.45;;
9986;SDS011;5033;46.310;11.214;2023-04-03T05:14:30;1.60;;;1.60;;
9986;SDS011;5033;46.310;11.214;2023-04-03T05:16:58;1.60;;;1.50;;
9986;SDS011;5033;46.310;11.214;2023-04-03T05:19:25;1.25;;;1.25;;
9986;SDS011;5033;46.310;11.214;2023-04-03T05:21:52;1.17;;;1.17;;
9986;SDS011;5033;46.310;11.214;2023-04-03T05:24:19;1.52;;;1.52;;
9986;SDS011;5033;46.310;11.214;2023-04-03T05:26:47;1.48;;;1.48;;
9986;SDS011;5033;46.310;11.214;2023-04-03T05:29:14;1.40;;;1.40;;
9986;SDS011;5033;46.310;11.214;2023-04-03T05:31:41;1.50;;;1.50;;
9986;SDS011;5033;46.310;11.214;2023-04-03T05:34:09;1.70;;;1.60;;
9986;SDS011;5033;46.310;11.214;2023-04-03T05:36:36;1.50;;;1.50;;
9986;SDS011;5033;46.310;11.214;2023-04-03T05:39:03;1.60;;;1.60;;
9986;SDS011;5033;46.310;11.214;2023-04-03T05:41:30;2.00;;;1.90;;
9986;SDS011;5033;46.310;11.214;2023-04-03T05:43:57;1.63;;;1.60;;
9986;SDS011;5033;46.310;11.214;2023-04-03T05:46:24;1.63;;;1.52;;
9986;SDS011;5033;46.310;11.214;2023-04-03T05:48:51;1.55;;;1.48;;
9986;SDS011;5033;46.310;11.214;2023-04-03T05:51:21;1.50;;;1.50;;
9986;SDS011;5033;46.310;11.214;2023-04-03T05:53:51;1.58;;;1.58;;
9986;SDS011;5033;46.310;11.214;2023-04-03T05:56:21;1.70;;;1.60;;
9986;SDS011;5033;46.310;11.214;2023-04-03T05:58:48;1.35;;;1.33;;
9986;SDS011;5033;46.310;11.214;2023-04-03T06:01:15;1.30;;;1.30;;
9986;SDS011;5033;46.310;11.214;2023-04-03T06:03:42;1.35;;;1.30;;
9986;SDS011;5033;46.310;11.214;2023-04-03T06:06:12;1.30;;;1.20;;
9986;SDS011;5033;46.310;11.214;2023-04-03T06:08:41;1.27;;;1.17;;
9986;SDS011;5033;46.310;11.214;2023-04-03T06:11:09;1.08;;;1.08;;
9986;SDS011;5033;46.310;11.214;2023-04-03T06:13:36;1.58;;;1.50;;
9986;SDS011;5033;46.310;11.214;2023-04-03T06:16:04;1.92;;;1.30;;
9986;SDS011;5033;46.310;11.214;2023-04-03T06:18:32;1.90;;;1.40;;
9986;SDS011;5033;46.310;11.214;2023-04-03T06:20:58;1.27;;;1.27;;
9986;SDS011;5033;46.310;11.214;2023-04-03T06:23:26;1.33;;;1.33;;
9986;SDS011;5033;46.310;11.214;2023-04-03T06:25:54;1.20;;;1.20;;
9986;SDS011;5033;46.310;11.214;2023-04-03T06:28:22;1.40;;;1.40;;
9986;SDS011;5033;46.310;11.214;2023-04-03T06:30:49;1.30;;;1.20;;
9986;SDS011;5033;46.310;11.214;2023-04-03T06:33:16;1.10;;;1.10;;
9986;SDS011;5033;46.310;11.214;2023-04-03T06:35:43;0.95;;;0.95;;
9986;SDS011;5033;46.310;11.214;2023-04-03T06:38:10;2.45;;;1.08;;
9986;SDS011;5033;46.310;11.214;2023-04-03T06:40:38;1.88;;;1.10;;
9986;SDS011;5033;46.310;11.214;2023-04-03T06:43:06;1.35;;;1.27;;
9986;SDS011;5033;46.310;11.214;2023-04-03T06:45:33;1.20;;;1.10;;
9986;SDS011;5033;46.310;11.214;2023-04-03T06:48:01;1.25;;;1.25;;
9986;SDS011;5033;46.310;11.214;2023-04-03T06:50:28;4.28;;;1.10;;
9986;SDS011;5033;46.310;11.214;2023-04-03T06:52:55;1.00;;;1.00;;
9986;SDS011;5033;46.310;11.214;2023-04-03T06:55:22;1.10;;;1.10;;
9986;SDS011;5033;46.310;11.214;2023-04-03T06:57:49;1.02;;;1.00;;
9986;SDS011;5033;46.310;11.214;2023-04-03T07:00:18;1.20;;;1.10;;
9986;SDS011;5033;46.310;11.214;2023-04-03T07:02:45;1.17;;;1.17;;
9986;SDS011;5033;46.310;11.214;2023-04-03T07:05:12;1.20;;;1.20;;
9986;SDS011;5033;46.310;11.214;2023-04-03T07:07:39;1.00;;;1.00;;
9986;SDS011;5033;46.310;11.214;2023-04-03T07:10:06;0.98;;;0.98;;
9986;SDS011;5033;46.310;11.214;2023-04-03T07:12:35;1.00;;;1.00;;
9986;SDS011;5033;46.310;11.214;2023-04-03T07:15:03;1.00;;;1.00;;
9986;SDS011;5033;46.310;11.214;2023-04-03T07:17:32;1.95;;;1.20;;
9986;SDS011;5033;46.310;11.214;2023-04-03T07:19:58;0.93;;;0.93;;
9986;SDS011;5033;46.310;11.214;2023-04-03T07:22:26;0.90;;;0.90;;
9986;SDS011;5033;46.310;11.214;2023-04-03T07:24:53;1.20;;;1.17;;
9986;SDS011;5033;46.310;11.214;2023-04-03T07:27:20;1.30;;;1.20;;
9986;SDS011;5033;46.310;11.214;2023-04-03T07:29:47;1.67;;;0.85;;
9986;SDS011;5033;46.310;11.214;2023-04-03T07:32:15;1.40;;;1.25;;
9986;SDS011;5033;46.310;11.214;2023-04-03T07:34:44;1.00;;;0.95;;
9986;SDS011;5033;46.310;11.214;2023-04-03T07:37:11;1.10;;;1.10;;
9986;SDS011;5033;46.310;11.214;2023-04-03T07:39:37;1.00;;;1.00;;
9986;SDS011;5033;46.310;11.214;2023-04-03T07:42:04;0.80;;;0.80;;
9986;SDS011;5033;46.310;11.214;2023-04-03T07:44:32;2.33;;;0.98;;
9986;SDS011;5033;46.310;11.214;2023-04-03T07:47:00;0.93;;;0.93;;
9986;SDS011;5033;46.310;11.214;2023-04-03T07:49:27;1.15;;;1.00;;
9986;SDS011;5033;46.310;11.214;2023-04-03T07:51:55;1.00;;;1.00;;
9986;SDS011;5033;46.310;11.214;2023-04-03T07:54:23;1.10;;;1.10;;
9986;SDS011;5033;46.310;11.214;2023-04-03T07:56:50;1.38;;;1.30;;
9986;SDS011;5033;46.310;11.214;2023-04-03T07:59:17;0.95;;;0.95;;
9986;SDS011;5033;46.310;11.214;2023-04-03T08:01:45;1.48;;;0.88;;
9986;SDS011;5033;46.310;11.214;2023-04-03T08:04:12;0.90;;;0.90;;
9986;SDS011;5033;46.310;11.214;2023-04-03T08:06:38;0.60;;;0.60;;
9986;SDS011;5033;46.310;11.214;2023-04-03T08:09:07;1.10;;;1.10;;
9986;SDS011;5033;46.310;11.214;2023-04-03T08:11:34;0.90;;;0.90;;
9986;SDS011;5033;46.310;11.214;2023-04-03T08:14:02;0.80;;;0.80;;
9986;SDS011;5033;46.310;11.214;2023-04-03T08:16:29;0.70;;;0.70;;
9986;SDS011;5033;46.310;11.214;2023-04-03T08:18:56;5.82;;;1.63;;
9986;SDS011;5033;46.310;11.214;2023-04-03T08:21:23;0.75;;;0.73;;
9986;SDS011;5033;46.310;11.214;2023-04-03T08:23:50;0.70;;;0.70;;
9986;SDS011;5033;46.310;11.214;2023-04-03T08:26:19;0.70;;;0.70;;
9986;SDS011;5033;46.310;11.214;2023-04-03T08:28:47;0.65;;;0.63;;
9986;SDS011;5033;46.310;11.214;2023-04-03T08:31:15;1.17;;;0.70;;
9986;SDS011;5033;46.310;11.214;2023-04-03T08:33:44;0.60;;;0.60;;
9986;SDS011;5033;46.310;11.214;2023-04-03T08:36:16;0.70;;;0.70;;
9986;SDS011;5033;46.310;11.214;2023-04-03T08:38:45;0.90;;;0.90;;
9986;SDS011;5033;46.310;11.214;2023-04-03T08:41:14;0.75;;;0.70;;
9986;SDS011;5033;46.310;11.214;2023-04-03T08:43:52;1.38;;;0.60;;
9986;SDS011;5033;46.310;11.214;2023-04-03T08:46:26;0.70;;;0.70;;
9986;SDS011;5033;46.310;11.214;2023-04-03T08:49:07;0.70;;;0.70;;
9986;SDS011;5033;46.310;11.214;2023-04-03T08:51:41;0.60;;;0.60;;
9986;SDS011;5033;46.310;11.214;2023-04-03T08:54:17;0.70;;;0.70;;
9986;SDS011;5033;46.310;11.214;2023-04-03T08:56:54;0.60;;;0.60;;
9986;SDS011;5033;46.310;11.214;2023-04-03T08:59:25;0.50;;;0.50;;
9986;SDS011;5033;46.310;11.214;2023-04-03T09:01:55;0.55;;;0.55;;
9986;SDS011;5033;46.310;11.214;2023-04-03T09:04:23;0.60;;;0.60;;
9986;SDS011;5033;46.310;11.214;2023-04-03T09:06:54;0.90;;;0.90;;
9986;SDS011;5033;46.310;11.214;2023-04-03T09:09:29;0.85;;;0.73;;
9986;SDS011;5033;46.310;11.214;2023-04-03T09:12:00;1.45;;;0.60;;
9986;SDS011;5033;46.310;11.214;2023-04-03T09:14:38;0.63;;;0.63;;
9986;SDS011;5033;46.310;11.214;2023-04-03T09:17:09;0.80;;;0.80;;
9986;SDS011;5033;46.310;11.214;2023-04-03T09:19:47;0.68;;;0.68;;
9986;SDS011;5033;46.310;11.214;2023-04-03T09:22:21;0.60;;;0.60;;
9986;SDS011;5033;46.310;11.214;2023-04-03T09:24:52;0.50;;;0.50;;
9986;SDS011;5033;46.310;11.214;2023-04-03T09:27:25;1.42;;;1.33;;
9986;SDS011;5033;46.310;11.214;2023-04-03T09:29:53;0.60;;;0.60;;
9986;SDS011;5033;46.310;11.214;2023-04-03T09:32:26;1.10;;;0.63;;
9986;SDS011;5033;46.310;11.214;2023-04-03T09:34:55;0.55;;;0.55;;
9986;SDS011;5033;46.310;11.214;2023-04-03T09:37:35;0.85;;;0.70;;
9986;SDS011;5033;46.310;11.214;2023-04-03T09:40:05;0.60;;;0.60;;
9986;SDS011;5033;46.310;11.214;2023-04-03T09:42:53;0.60;;;0.60;;
9986;SDS011;5033;46.310;11.214;2023-04-03T09:45:24;0.77;;;0.77;;
9986;SDS011;5033;46.310;11.214;2023-04-03T09:48:03;0.70;;;0.70;;
9986;SDS011;5033;46.310;11.214;2023-04-03T09:50:32;0.57;;;0.57;;
9986;SDS011;5033;46.310;11.214;2023-04-03T09:53:02;0.55;;;0.50;;
9986;SDS011;5033;46.310;11.214;2023-04-03T09:55:32;0.73;;;0.73;;
9986;SDS011;5033;46.310;11.214;2023-04-03T09:58:22;0.60;;;0.60;;
9986;SDS011;5033;46.310;11.214;2023-04-03T10:00:55;0.75;;;0.70;;
9986;SDS011;5033;46.310;11.214;2023-04-03T10:03:24;0.70;;;0.70;;
9986;SDS011;5033;46.310;11.214;2023-04-03T10:05:54;0.75;;;0.70;;
9986;SDS011;5033;46.310;11.214;2023-04-03T10:08:24;1.02;;;0.70;;
9986;SDS011;5033;46.310;11.214;2023-04-03T10:11:07;3.35;;;0.80;;
9986;SDS011;5033;46.310;11.214;2023-04-03T10:13:37;0.60;;;0.60;;
9986;SDS011;5033;46.310;11.214;2023-04-03T10:16:18;0.63;;;0.63;;
9986;SDS011;5033;46.310;11.214;2023-04-03T10:18:49;0.55;;;0.55;;
9986;SDS011;5033;46.310;11.214;2023-04-03T10:21:30;0.57;;;0.57;;
9986;SDS011;5033;46.310;11.214;2023-04-03T10:24:09;0.60;;;0.60;;
9986;SDS011;5033;46.310;11.214;2023-04-03T10:26:41;0.60;;;0.60;;
9986;SDS011;5033;46.310;11.214;2023-04-03T10:29:18;0.70;;;0.70;;
9986;SDS011;5033;46.310;11.214;2023-04-03T10:31:54;0.70;;;0.70;;
9986;SDS011;5033;46.310;11.214;2023-04-03T10:34:28;0.57;;;0.57;;
9986;SDS011;5033;46.310;11.214;2023-04-03T10:37:00;0.57;;;0.57;;
9986;SDS011;5033;46.310;11.214;2023-04-03T10:39:34;0.52;;;0.52;;
9986;SDS011;5033;46.310;11.214;2023-04-03T10:42:11;0.60;;;0.60;;
9986;SDS011;5033;46.310;11.214;2023-04-03T10:44:51;0.60;;;0.60;;
9986;SDS011;5033;46.310;11.214;2023-04-03T10:47:30;0.70;;;0.70;;
9986;SDS011;5033;46.310;11.214;2023-04-03T10:50:06;0.60;;;0.60;;
9986;SDS011;5033;46.310;11.214;2023-04-03T10:53:00;0.63;;;0.63;;
9986;SDS011;5033;46.310;11.214;2023-04-03T10:55:32;0.70;;;0.70;;
9986;SDS011;5033;46.310;11.214;2023-04-03T10:58:03;0.80;;;0.80;;
9986;SDS011;5033;46.310;11.214;2023-04-03T11:00:35;0.80;;;0.80;;
9986;SDS011;5033;46.310;11.214;2023-04-03T11:03:08;1.85;;;0.50;;
9986;SDS011;5033;46.310;11.214;2023-04-03T11:05:40;0.50;;;0.50;;
9986;SDS011;5033;46.310;11.214;2023-04-03T11:08:13;0.50;;;0.50;;
9986;SDS011;5033;46.310;11.214;2023-04-03T11:10:51;0.68;;;0.68;;
9986;SDS011;5033;46.310;11.214;2023-04-03T11:13:22;0.70;;;0.70;;
9986;SDS011;5033;46.310;11.214;2023-04-03T11:15:54;0.50;;;0.50;;
9986;SDS011;5033;46.310;11.214;2023-04-03T11:18:25;0.60;;;0.60;;
9986;SDS011;5033;46.310;11.214;2023-04-03T11:20:59;0.57;;;0.57;;
9986;SDS011;5033;46.310;11.214;2023-04-03T11:23:30;0.50;;;0.50;;
9986;SDS011;5033;46.310;11.214;2023-04-03T11:26:04;0.60;;;0.60;;
9986;SDS011;5033;46.310;11.214;2023-04-03T11:28:35;2.92;;;0.70;;
9986;SDS011;5033;46.310;11.214;2023-04-03T11:31:07;1.40;;;0.57;;
9986;SDS011;5033;46.310;11.214;2023-04-03T11:33:43;0.45;;;0.40;;
9986;SDS011;5033;46.310;11.214;2023-04-03T11:36:18;0.70;;;0.70;;
9986;SDS011;5033;46.310;11.214;2023-04-03T11:38:51;0.60;;;0.60;;
9986;SDS011;5033;46.310;11.214;2023-04-03T11:41:24;0.88;;;0.88;;
9986;SDS011;5033;46.310;11.214;2023-04-03T11:43:57;0.75;;;0.60;;
9986;SDS011;5033;46.310;11.214;2023-04-03T11:55:41;1.52;;;0.63;;
9986;SDS011;5033;46.310;11.214;2023-04-03T11:58:13;3.15;;;0.60;;
9986;SDS011;5033;46.310;11.214;2023-04-03T12:12:55;0.60;;;0.60;;
9986;SDS011;5033;46.310;11.214;2023-04-03T12:15:26;0.57;;;0.57;;
9986;SDS011;5033;46.310;11.214;2023-04-03T12:21:18;0.50;;;0.50;;
9986;SDS011;5033;46.310;11.214;2023-04-03T12:23:57;0.57;;;0.57;;
9986;SDS011;5033;46.310;11.214;2023-04-03T12:26:30;0.57;;;0.57;;
9986;SDS011;5033;46.310;11.214;2023-04-03T12:29:01;0.60;;;0.60;;
9986;SDS011;5033;46.310;11.214;2023-04-03T12:31:38;2.03;;;0.70;;
9986;SDS011;5033;46.310;11.214;2023-04-03T12:34:15;0.50;;;0.50;;
9986;SDS011;5033;46.310;11.214;2023-04-03T12:36:55;0.60;;;0.60;;
9986;SDS011;5033;46.310;11.214;2023-04-03T12:39:35;0.60;;;0.60;;
9986;SDS011;5033;46.310;11.214;2023-04-03T12:42:29;0.60;;;0.60;;
9986;SDS011;5033;46.310;11.214;2023-04-03T12:45:09;4.80;;;0.68;;
9986;SDS011;5033;46.310;11.214;2023-04-03T12:47:42;0.70;;;0.70;;
9986;SDS011;5033;46.310;11.214;2023-04-03T12:50:17;0.60;;;0.60;;
9986;SDS011;5033;46.310;11.214;2023-04-03T12:52:49;0.70;;;0.70;;
9986;SDS011;5033;46.310;11.214;2023-04-03T12:55:20;0.93;;;0.68;;
9986;SDS011;5033;46.310;11.214;2023-04-03T12:57:49;2.72;;;0.60;;
9986;SDS011;5033;46.310;11.214;2023-04-03T13:00:21;0.70;;;0.70;;
9986;SDS011;5033;46.310;11.214;2023-04-03T13:02:58;0.93;;;0.50;;
9986;SDS011;5033;46.310;11.214;2023-04-03T13:05:25;2.92;;;0.63;;
9986;SDS011;5033;46.310;11.214;2023-04-03T13:07:55;0.60;;;0.60;;
9986;SDS011;5033;46.310;11.214;2023-04-03T13:10:27;0.73;;;0.43;;
9986;SDS011;5033;46.310;11.214;2023-04-03T13:12:55;0.80;;;0.80;;
9986;SDS011;5033;46.310;11.214;2023-04-03T13:15:25;0.60;;;0.60;;
9986;SDS011;5033;46.310;11.214;2023-04-03T13:17:54;0.95;;;0.55;;
9986;SDS011;5033;46.310;11.214;2023-04-03T13:20:23;0.68;;;0.68;;
9986;SDS011;5033;46.310;11.214;2023-04-03T13:22:54;1.27;;;0.73;;
9986;SDS011;5033;46.310;11.214;2023-04-03T13:25:24;0.70;;;0.70;;
9986;SDS011;5033;46.310;11.214;2023-04-03T13:27:55;0.55;;;0.50;;
9986;SDS011;5033;46.310;11.214;2023-04-03T13:30:24;0.75;;;0.63;;
9986;SDS011;5033;46.310;11.214;2023-04-03T13:32:55;1.73;;;0.73;;
9986;SDS011;5033;46.310;11.214;2023-04-03T13:35:26;1.45;;;0.70;;
9986;SDS011;5033;46.310;11.214;2023-04-03T13:37:56;0.70;;;0.70;;
9986;SDS011;5033;46.310;11.214;2023-04-03T13:40:23;1.05;;;0.63;;
9986;SDS011;5033;46.310;11.214;2023-04-03T13:43:00;0.75;;;0.75;;
9986;SDS011;5033;46.310;11.214;2023-04-03T13:45:29;4.07;;;0.75;;
9986;SDS011;5033;46.310;11.214;2023-04-03T13:48:08;0.60;;;0.60;;
9986;SDS011;5033;46.310;11.214;2023-04-03T13:53:22;0.70;;;0.70;;
9986;SDS011;5033;46.310;11.214;2023-04-03T13:55:54;2.38;;;0.85;;
9986;SDS011;5033;46.310;11.214;2023-04-03T13:58:25;0.70;;;0.70;;
9986;SDS011;5033;46.310;11.214;2023-04-03T14:00:55;0.80;;;0.80;;
9986;SDS011;5033;46.310;11.214;2023-04-03T14:03:29;1.70;;;0.98;;
9986;SDS011;5033;46.310;11.214;2023-04-03T14:05:57;0.70;;;0.70;;
9986;SDS011;5033;46.310;11.214;2023-04-03T14:08:24;1.17;;;1.10;;
9986;SDS011;5033;46.310;11.214;2023-04-03T14:10:52;1.42;;;0.77;;
9986;SDS011;5033;46.310;11.214;2023-04-03T14:13:20;0.70;;;0.70;;
9986;SDS011;5033;46.310;11.214;2023-04-03T14:15:48;0.80;;;0.80;;
9986;SDS011;5033;46.310;11.214;2023-04-03T14:18:18;0.82;;;0.82;;
9986;SDS011;5033;46.310;11.214;2023-04-03T14:20:46;1.40;;;0.80;;
9986;SDS011;5033;46.310;11.214;2023-04-03T14:23:14;0.65;;;0.60;;
9986;SDS011;5033;46.310;11.214;2023-04-03T14:25:41;0.68;;;0.68;;
9986;SDS011;5033;46.310;11.214;2023-04-03T14:28:13;2.05;;;0.80;;
9986;SDS011;5033;46.310;11.214;2023-04-03T14:30:42;0.80;;;0.80;;
9986;SDS011;5033;46.310;11.214;2023-04-03T14:33:11;1.95;;;0.70;;
9986;SDS011;5033;46.310;11.214;2023-04-03T14:35:41;0.93;;;0.75;;
9986;SDS011;5033;46.310;11.214;2023-04-03T14:38:20;0.65;;;0.65;;
9986;SDS011;5033;46.310;11.214;2023-04-03T14:40:50;4.03;;;0.70;;
9986;SDS011;5033;46.310;11.214;2023-04-03T14:43:17;1.38;;;0.90;;
9986;SDS011;5033;46.310;11.214;2023-04-03T14:45:45;2.42;;;0.80;;
9986;SDS011;5033;46.310;11.214;2023-04-03T14:48:15;1.13;;;0.80;;
9986;SDS011;5033;46.310;11.214;2023-04-03T14:50:45;0.90;;;0.90;;
9986;SDS011;5033;46.310;11.214;2023-04-03T14:53:13;0.80;;;0.80;;
9986;SDS011;5033;46.310;11.214;2023-04-03T14:55:41;0.80;;;0.80;;
9986;SDS011;5033;46.310;11.214;2023-04-03T14:58:12;0.70;;;0.70;;
9986;SDS011;5033;46.310;11.214;2023-04-03T15:00:40;0.65;;;0.65;;
9986;SDS011;5033;46.310;11.214;2023-04-03T15:03:10;0.95;;;0.75;;
9986;SDS011;5033;46.310;11.214;2023-04-03T15:05:41;0.85;;;0.85;;
9986;SDS011;5033;46.310;11.214;2023-04-03T15:08:13;0.90;;;0.90;;
9986;SDS011;5033;46.310;11.214;2023-04-03T15:10:45;0.75;;;0.75;;
9986;SDS011;5033;46.310;11.214;2023-04-03T15:13:12;0.98;;;0.70;;
9986;SDS011;5033;46.310;11.214;2023-04-03T15:15:39;0.80;;;0.80;;
9986;SDS011;5033;46.310;11.214;2023-04-03T15:18:09;0.90;;;0.90;;
9986;SDS011;5033;46.310;11.214;2023-04-03T15:20:41;0.85;;;0.85;;
9986;SDS011;5033;46.310;11.214;2023-04-03T15:23:09;0.95;;;0.95;;
9986;SDS011;5033;46.310;11.214;2023-04-03T15:25:37;0.88;;;0.88;;
9986;SDS011;5033;46.310;11.214;2023-04-03T15:28:05;0.80;;;0.80;;
9986;SDS011;5033;46.310;11.214;2023-04-03T15:30:32;0.90;;;0.90;;
9986;SDS011;5033;46.310;11.214;2023-04-03T15:33:04;0.70;;;0.70;;
9986;SDS011;5033;46.310;11.214;2023-04-03T15:35:31;1.00;;;1.00;;
9986;SDS011;5033;46.310;11.214;2023-04-03T15:37:59;0.90;;;0.90;;
9986;SDS011;5033;46.310;11.214;2023-04-03T15:40:26;1.00;;;1.00;;
9986;SDS011;5033;46.310;11.214;2023-04-03T15:42:53;0.80;;;0.80;;